Time;durP1;ratioP1;P1;durP2;ratioP2;P2;SDS_P1;SDS_P2;PMS_P1;PMS_P2;Temp;Humidity;BMP_temperature;BMP_pressure;BME280_temperature;BME280_humidity;BME280_pressure;Samples;Min_cycle;Max_cycle;Signal;HPM_P1;HPM_P2
2022/01/02 00:01:00;;;;;;;7.33;6.63;;;7.10;99.90;;;;;;4992670;28;20968;-65
2022/01/02 00:03:29;;;;;;;8.10;6.10;;;7.10;99.90;;;;;;4992818;28;20458;-66
2022/01/02 00:05:59;;;;;;;8.10;7.30;;;7.00;99.90;;;;;;4992615;28;20513;-66
2022/01/02 00:08:25;;;;;;;8.90;7.27;;;7.00;99.90;;;;;;4992538;28;20468;-65
2022/01/02 00:10:56;;;;;;;8.90;7.23;;;7.00;99.90;;;;;;4992493;28;20478;-65
2022/01/02 00:13:31;;;;;;;7.73;6.33;;;6.90;99.90;;;;;;4992644;28;20449;-65
2022/01/02 00:16:03;;;;;;;7.70;6.83;;;6.90;99.90;;;;;;4992359;28;20419;-65
2022/01/02 00:18:33;;;;;;;8.77;6.70;;;7.00;99.90;;;;;;4992570;28;20458;-65
2022/01/02 00:21:07;;;;;;;8.33;6.47;;;7.00;99.90;;;;;;4993593;28;21027;-64
2022/01/02 00:23:47;;;;;;;10.00;6.40;;;7.00;99.90;;;;;;4996621;28;20422;-66
2022/01/02 00:26:17;;;;;;;7.17;6.47;;;7.00;99.90;;;;;;4996228;28;20426;-65
2022/01/02 00:28:45;;;;;;;9.30;6.60;;;6.90;99.90;;;;;;4996450;28;20462;-65
2022/01/02 00:31:13;;;;;;;8.83;6.93;;;6.80;99.90;;;;;;4996454;28;20441;-65
2022/01/02 00:33:40;;;;;;;8.93;6.43;;;6.90;99.90;;;;;;4996415;28;20461;-66
2022/01/02 00:36:06;;;;;;;9.83;7.47;;;6.90;99.90;;;;;;4996023;28;20423;-65
2022/01/02 00:38:31;;;;;;;7.37;6.67;;;6.90;99.90;;;;;;4996200;28;20445;-66
2022/01/02 00:40:58;;;;;;;7.83;6.33;;;6.90;99.90;;;;;;4996127;28;20198;-65
2022/01/02 00:43:32;;;;;;;8.23;6.23;;;6.90;99.90;;;;;;4996184;28;20183;-65
2022/01/02 00:46:03;;;;;;;7.70;6.60;;;6.90;99.90;;;;;;4995960;28;20505;-65
2022/01/02 00:48:30;;;;;;;7.63;6.63;;;6.90;99.90;;;;;;4996105;28;20524;-65
2022/01/02 00:51:05;;;;;;;6.37;5.17;;;6.90;99.90;;;;;;4996045;28;20493;-65
2022/01/02 00:53:38;;;;;;;6.93;5.63;;;6.80;99.90;;;;;;4996125;28;20421;-65
2022/01/02 00:56:04;;;;;;;8.03;6.80;;;6.80;99.90;;;;;;4995650;28;20429;-65
2022/01/02 00:58:59;;;;;;;7.00;5.93;;;6.70;99.90;;;;;;4995936;28;20423;-66
2022/01/02 01:01:29;;;;;;;5.67;4.80;;;6.80;99.90;;;;;;4993330;28;21051;-65
2022/01/02 01:03:55;;;;;;;5.63;5.03;;;6.90;99.90;;;;;;4995894;28;20419;-65
2022/01/02 01:06:25;;;;;;;5.23;4.73;;;6.90;99.90;;;;;;4995536;28;20489;-65
2022/01/02 01:08:57;;;;;;;6.90;6.13;;;6.90;99.90;;;;;;4995667;28;20454;-65
2022/01/02 01:11:27;;;;;;;5.40;4.90;;;6.90;99.90;;;;;;4995667;28;20438;-66
2022/01/02 01:13:56;;;;;;;7.60;5.70;;;6.90;99.90;;;;;;4995642;28;20426;-65
2022/01/02 01:16:22;;;;;;;5.57;5.07;;;6.90;99.90;;;;;;4995342;28;20419;-66
2022/01/02 01:18:48;;;;;;;6.93;6.00;;;6.90;99.90;;;;;;4995562;28;20431;-66
2022/01/02 01:21:15;;;;;;;6.13;5.53;;;6.90;99.90;;;;;;4995403;28;20462;-65
2022/01/02 01:23:41;;;;;;;6.23;5.40;;;6.90;99.90;;;;;;4995506;28;20421;-66
2022/01/02 01:26:09;;;;;;;6.67;6.00;;;6.80;99.90;;;;;;4995113;28;20498;-65
2022/01/02 01:28:35;;;;;;;6.53;5.83;;;6.80;99.90;;;;;;4995328;28;20963;-65
2022/01/02 01:31:01;;;;;;;6.73;6.00;;;6.80;99.90;;;;;;4995282;28;20501;-65
2022/01/02 01:33:27;;;;;;;6.40;5.70;;;6.70;99.90;;;;;;4994153;28;20415;-65
2022/01/02 01:35:53;;;;;;;6.20;5.20;;;6.70;99.90;;;;;;4995047;28;20417;-65
2022/01/02 01:38:18;;;;;;;7.63;6.87;;;6.70;99.90;;;;;;4995161;28;20190;-65
2022/01/02 01:41:05;;;;;;;10.03;6.33;;;6.70;99.90;;;;;;4995071;28;20199;-64
2022/01/02 01:43:40;;;;;;;7.47;5.90;;;6.70;99.90;;;;;;4995136;28;20168;-66
2022/01/02 01:46:06;;;;;;;6.70;6.00;;;6.80;99.90;;;;;;4994868;28;20418;-66
2022/01/02 01:48:32;;;;;;;7.10;6.40;;;6.80;99.90;;;;;;4994987;28;20457;-66
2022/01/02 01:50:58;;;;;;;7.87;6.40;;;6.80;99.90;;;;;;4994916;28;20431;-65
2022/01/02 01:53:23;;;;;;;6.80;6.10;;;6.70;99.90;;;;;;4994922;28;20172;-65
2022/01/02 01:55:50;;;;;;;8.93;7.00;;;6.60;99.90;;;;;;4994596;28;20203;-66
2022/01/02 01:58:15;;;;;;;8.50;6.83;;;6.60;99.90;;;;;;4994912;28;20180;-66
2022/01/02 02:00:42;;;;;;;7.00;6.03;;;6.60;99.90;;;;;;4994799;28;21022;-66
2022/01/02 02:03:08;;;;;;;9.10;6.53;;;6.50;99.90;;;;;;4994814;28;20433;-65
2022/01/02 02:05:33;;;;;;;7.70;6.87;;;6.50;99.90;;;;;;4994381;28;20434;-66
2022/01/02 02:07:59;;;;;;;7.30;6.60;;;6.50;99.90;;;;;;4994567;28;20237;-66
2022/01/02 02:10:33;;;;;;;8.77;7.10;;;6.50;99.90;;;;;;4994519;28;20207;-65
2022/01/02 02:13:01;;;;;;;8.73;7.30;;;6.40;99.90;;;;;;4994658;28;20255;-65
2022/01/02 02:15:27;;;;;;;8.20;6.40;;;6.30;99.90;;;;;;4994282;28;20480;-65
2022/01/02 02:17:52;;;;;;;7.77;6.70;;;6.30;99.90;;;;;;4994482;28;20418;-65
2022/01/02 02:20:25;;;;;;;7.30;6.47;;;6.20;99.90;;;;;;4994378;28;20465;-65
2022/01/02 02:22:55;;;;;;;10.33;7.23;;;6.20;99.90;;;;;;4994310;28;20210;-66
2022/01/02 02:25:29;;;;;;;6.70;6.00;;;6.20;99.90;;;;;;4994067;28;20481;-66
2022/01/02 02:28:08;;;;;;;6.70;6.00;;;6.20;99.90;;;;;;4994304;28;20480;-66
2022/01/02 02:30:36;;;;;;;7.10;6.03;;;6.20;99.90;;;;;;4994220;28;20430;-66
2022/01/02 02:33:03;;;;;;;8.37;6.17;;;6.20;99.90;;;;;;4994208;28;20841;-65
2022/01/02 02:35:31;;;;;;;6.37;5.73;;;6.10;99.90;;;;;;4993804;28;20928;-65
2022/01/02 02:37:58;;;;;;;7.33;6.63;;;6.10;99.90;;;;;;4994106;28;20982;-65
2022/01/02 02:40:27;;;;;;;7.77;6.10;;;6.10;99.90;;;;;;4994023;28;20447;-65
2022/01/02 02:42:58;;;;;;;7.20;6.50;;;6.10;99.90;;;;;;4994120;28;20489;-66
2022/01/02 02:51:22;;;;;;;10.87;6.60;;;6.10;99.90;;;;;;4978153;28;21033;-66
2022/01/02 02:53:50;;;;;;;6.87;5.63;;;6.10;99.90;;;;;;4993815;28;20426;-64
2022/01/02 02:56:22;;;;;;;7.33;5.77;;;6.10;99.90;;;;;;4993426;28;20920;-66
2022/01/02 02:58:50;;;;;;;8.83;5.93;;;6.00;99.90;;;;;;4993796;28;20423;-65
2022/01/02 03:01:18;;;;;;;6.80;5.70;;;6.00;99.90;;;;;;4993667;28;20446;-66
2022/01/02 03:03:44;;;;;;;7.57;5.30;;;6.00;99.90;;;;;;4993948;28;20924;-65
2022/01/02 03:06:11;;;;;;;7.53;5.10;;;5.90;99.90;;;;;;4993290;28;20493;-66
2022/01/02 03:08:37;;;;;;;7.03;4.73;;;6.00;99.90;;;;;;4993557;28;20494;-66
2022/01/02 03:11:08;;;;;;;5.37;4.70;;;6.10;99.90;;;;;;4993444;28;20448;-66
2022/01/02 03:13:33;;;;;;;6.90;5.97;;;6.10;99.90;;;;;;4993558;28;20426;-66
2022/01/02 03:15:59;;;;;;;6.83;4.53;;;6.20;99.90;;;;;;4992821;28;20419;-66
2022/01/02 03:18:24;;;;;;;5.23;4.73;;;6.20;99.90;;;;;;4993317;28;20601;-66
2022/01/02 03:20:50;;;;;;;6.80;4.40;;;6.20;99.90;;;;;;4993245;28;20697;-66
2022/01/02 03:23:15;;;;;;;5.83;5.23;;;6.30;99.90;;;;;;4993237;28;20183;-66
2022/01/02 03:25:41;;;;;;;6.03;4.53;;;6.30;99.90;;;;;;4993059;28;20182;-65
2022/01/02 03:28:06;;;;;;;6.03;5.13;;;6.30;99.90;;;;;;4993117;28;20199;-66
2022/01/02 03:30:33;;;;;;;5.70;4.60;;;6.30;99.90;;;;;;4993125;28;20242;-66
2022/01/02 03:32:58;;;;;;;5.83;5.23;;;6.30;99.90;;;;;;4993091;28;20180;-66
2022/01/02 03:35:24;;;;;;;6.20;5.27;;;6.30;99.90;;;;;;4992707;28;20425;-65
2022/01/02 03:37:51;;;;;;;6.37;5.43;;;6.20;99.90;;;;;;4992974;28;20167;-66
2022/01/02 03:40:16;;;;;;;5.97;4.80;;;6.20;99.90;;;;;;4991668;28;20200;-66
2022/01/02 03:42:42;;;;;;;7.13;5.03;;;6.10;99.90;;;;;;4992996;28;20419;-66
2022/01/02 03:45:08;;;;;;;6.23;4.90;;;6.10;99.90;;;;;;4992676;28;20171;-66
2022/01/02 03:47:34;;;;;;;6.10;5.60;;;6.10;99.90;;;;;;4992942;28;20262;-66
2022/01/02 03:49:59;;;;;;;7.00;5.80;;;6.00;99.90;;;;;;4992631;28;20549;-65
2022/01/02 03:52:25;;;;;;;6.67;5.40;;;6.00;99.90;;;;;;4992786;28;20555;-65
2022/01/02 03:54:51;;;;;;;7.63;5.90;;;6.00;99.90;;;;;;4992601;28;20184;-66
2022/01/02 03:57:17;;;;;;;8.20;6.43;;;5.90;99.90;;;;;;4992175;28;20429;-66
2022/01/02 03:59:43;;;;;;;6.87;5.57;;;5.90;99.90;;;;;;4992585;28;20873;-66
2022/01/02 04:02:08;;;;;;;8.17;6.70;;;5.90;99.90;;;;;;4992693;28;20249;-65
2022/01/02 04:04:34;;;;;;;6.73;5.40;;;5.90;99.90;;;;;;4992723;28;20183;-66
2022/01/02 04:07:00;;;;;;;7.87;6.30;;;5.90;99.90;;;;;;4992327;28;20266;-66
2022/01/02 04:09:25;;;;;;;7.37;6.60;;;5.80;99.90;;;;;;4992607;28;20199;-65
2022/01/02 04:11:51;;;;;;;9.90;7.20;;;5.80;99.90;;;;;;4992547;28;20206;-65
2022/01/02 04:14:16;;;;;;;7.03;6.33;;;5.80;99.90;;;;;;4992355;28;20277;-66
2022/01/02 04:16:42;;;;;;;7.57;6.87;;;5.70;99.90;;;;;;4992311;28;20179;-66
2022/01/02 04:19:07;;;;;;;9.47;7.50;;;5.70;99.90;;;;;;4992845;28;20633;-65
2022/01/02 04:21:33;;;;;;;7.03;6.37;;;5.70;99.90;;;;;;4992649;28;20221;-66
2022/01/02 04:23:58;;;;;;;6.57;5.97;;;5.70;99.90;;;;;;4992537;28;20292;-66
2022/01/02 04:26:24;;;;;;;7.00;5.80;;;5.70;99.90;;;;;;4992117;28;20184;-67
2022/01/02 04:28:49;;;;;;;10.13;6.00;;;5.80;99.90;;;;;;4992451;28;20215;-66
2022/01/02 04:31:15;;;;;;;7.43;5.63;;;5.80;99.90;;;;;;4992483;28;20195;-66
2022/01/02 04:33:40;;;;;;;6.13;5.53;;;5.90;99.90;;;;;;4992483;28;20258;-65
2022/01/02 04:36:06;;;;;;;7.90;5.17;;;5.90;99.90;;;;;;4992048;28;20558;-66
2022/01/02 04:38:34;;;;;;;6.80;6.10;;;5.80;99.90;;;;;;4992372;28;20703;-66
2022/01/02 04:41:00;;;;;;;5.77;5.27;;;5.80;99.90;;;;;;4992271;28;20294;-66
2022/01/02 04:43:25;;;;;;;8.07;6.20;;;5.80;99.90;;;;;;4992303;28;20505;-66
2022/01/02 04:45:51;;;;;;;6.27;5.60;;;5.80;99.90;;;;;;4992208;28;20206;-66
2022/01/02 04:48:16;;;;;;;7.70;6.90;;;5.80;99.90;;;;;;4990980;28;20662;-66
2022/01/02 04:50:42;;;;;;;6.20;5.30;;;5.80;99.90;;;;;;4992200;28;20669;-66
2022/01/02 04:53:07;;;;;;;6.10;5.50;;;5.90;99.90;;;;;;4992285;28;20168;-66
2022/01/02 04:55:33;;;;;;;8.20;6.13;;;5.90;99.90;;;;;;4991928;28;20180;-66
2022/01/02 04:57:58;;;;;;;7.67;6.87;;;6.00;99.90;;;;;;4992173;28;20176;-65
2022/01/02 05:00:24;;;;;;;6.70;6.07;;;6.00;99.90;;;;;;4992339;28;20199;-66
2022/01/02 05:02:49;;;;;;;5.90;5.23;;;6.00;99.90;;;;;;4992343;28;20211;-66
2022/01/02 05:05:16;;;;;;;6.47;5.33;;;6.00;99.90;;;;;;4991908;28;20569;-66
2022/01/02 05:07:41;;;;;;;7.03;5.70;;;6.00;99.90;;;;;;4994228;28;20234;-66
2022/01/02 05:10:07;;;;;;;5.87;5.13;;;6.00;99.90;;;;;;4995647;28;20867;-66
2022/01/02 05:12:34;;;;;;;7.83;5.90;;;6.10;99.90;;;;;;4995684;28;20227;-66
2022/01/02 05:15:00;;;;;;;5.03;4.60;;;6.10;99.90;;;;;;4995257;28;20472;-67
2022/01/02 05:17:26;;;;;;;5.67;5.10;;;6.10;99.90;;;;;;4995671;28;20982;-66
2022/01/02 05:19:51;;;;;;;5.67;4.93;;;6.20;99.90;;;;;;4995444;28;20418;-65
2022/01/02 05:22:17;;;;;;;6.40;4.43;;;6.20;99.90;;;;;;4995422;28;20202;-66
2022/01/02 05:24:42;;;;;;;5.30;4.27;;;6.20;99.90;;;;;;4995461;28;20176;-66
2022/01/02 05:27:08;;;;;;;5.80;4.83;;;6.30;99.90;;;;;;4995282;28;20672;-66
2022/01/02 05:29:34;;;;;;;5.23;4.70;;;6.30;99.90;;;;;;4995300;28;20735;-65
2022/01/02 05:31:59;;;;;;;5.00;4.50;;;6.40;99.90;;;;;;4995351;28;20187;-66
2022/01/02 05:34:25;;;;;;;5.87;5.30;;;6.40;99.90;;;;;;4995331;28;20182;-66
2022/01/02 05:36:50;;;;;;;6.40;5.73;;;6.30;99.90;;;;;;4994914;28;20173;-66
2022/01/02 05:39:17;;;;;;;7.63;5.77;;;6.30;99.90;;;;;;4995252;28;20172;-65
2022/01/02 05:41:44;;;;;;;6.73;5.90;;;6.30;99.90;;;;;;4995144;28;20188;-66
2022/01/02 05:44:09;;;;;;;7.10;6.40;;;6.30;99.90;;;;;;4995104;28;20815;-66
2022/01/02 05:46:35;;;;;;;11.33;6.00;;;6.30;99.90;;;;;;4994774;28;20431;-65
2022/01/02 05:49:00;;;;;;;7.70;7.00;;;6.30;99.90;;;;;;4994854;28;20207;-66
2022/01/02 05:51:26;;;;;;;7.63;6.80;;;6.30;99.90;;;;;;4994840;28;20196;-66
2022/01/02 05:53:51;;;;;;;7.67;6.90;;;6.30;99.90;;;;;;4994989;28;20218;-66
2022/01/02 05:56:17;;;;;;;8.83;7.20;;;6.30;99.90;;;;;;4994766;28;20171;-65
2022/01/02 05:58:42;;;;;;;6.13;5.63;;;6.30;99.90;;;;;;4994768;28;20649;-66
2022/01/02 06:01:08;;;;;;;7.33;6.63;;;6.30;99.90;;;;;;4994767;28;20227;-66
2022/01/02 06:03:34;;;;;;;7.33;6.63;;;6.30;99.90;;;;;;4994791;28;20259;-65
2022/01/02 06:05:59;;;;;;;9.00;8.10;;;6.20;99.90;;;;;;4994372;28;20203;-65
2022/01/02 06:08:25;;;;;;;8.83;7.77;;;6.20;99.90;;;;;;4994617;28;20202;-65
2022/01/02 06:10:51;;;;;;;9.43;7.60;;;6.20;99.90;;;;;;4994601;28;20238;-65
2022/01/02 06:13:16;;;;;;;7.50;6.70;;;6.20;99.90;;;;;;4994561;28;20172;-66
2022/01/02 06:15:42;;;;;;;9.33;7.27;;;6.20;99.90;;;;;;4994251;28;20187;-66
2022/01/02 06:18:07;;;;;;;8.40;7.60;;;6.20;99.90;;;;;;4994037;28;20176;-66
2022/01/02 06:20:33;;;;;;;7.90;7.10;;;6.20;99.90;;;;;;4994090;28;20570;-66
2022/01/02 06:22:58;;;;;;;7.03;6.33;;;6.20;99.90;;;;;;4994445;28;20617;-66
2022/01/02 06:25:24;;;;;;;8.13;6.80;;;6.10;99.90;;;;;;4994186;28;20182;-67
2022/01/02 06:27:50;;;;;;;8.17;7.27;;;6.10;99.90;;;;;;4994236;28;20167;-66
2022/01/02 06:30:16;;;;;;;8.00;6.80;;;6.10;99.90;;;;;;4994228;28;20192;-66
2022/01/02 06:32:41;;;;;;;6.97;6.27;;;6.10;99.90;;;;;;4994129;28;20790;-66
2022/01/02 06:35:07;;;;;;;7.50;6.77;;;6.10;99.90;;;;;;4993835;28;20180;-66
2022/01/02 06:37:33;;;;;;;8.93;7.10;;;6.00;99.90;;;;;;4994113;28;20183;-66
2022/01/02 06:39:58;;;;;;;6.90;6.30;;;6.00;99.90;;;;;;4994084;28;20214;-66
2022/01/02 06:42:24;;;;;;;8.93;7.60;;;5.90;99.90;;;;;;4992791;28;20218;-66
2022/01/02 06:44:49;;;;;;;8.43;6.73;;;6.00;99.90;;;;;;4993988;28;20642;-66
2022/01/02 06:47:15;;;;;;;7.70;7.00;;;6.10;99.90;;;;;;4993674;28;20229;-66
2022/01/02 06:49:41;;;;;;;8.67;7.90;;;6.10;99.90;;;;;;4993687;28;20199;-66
2022/01/02 06:52:07;;;;;;;9.23;7.30;;;6.20;99.90;;;;;;4993929;28;20502;-66
2022/01/02 06:54:33;;;;;;;7.33;6.03;;;6.20;99.90;;;;;;4993896;28;20175;-66
2022/01/02 06:56:59;;;;;;;6.87;6.20;;;6.20;99.90;;;;;;4993454;28;20801;-65
2022/01/02 06:59:24;;;;;;;8.57;6.80;;;6.20;99.90;;;;;;4993695;28;20203;-66
2022/01/02 07:01:50;;;;;;;5.67;5.17;;;6.30;99.90;;;;;;4993547;28;20203;-66
2022/01/02 07:04:15;;;;;;;4.27;3.87;;;6.30;99.90;;;;;;4993559;28;20534;-66
2022/01/02 07:06:41;;;;;;;5.37;3.40;;;6.40;99.90;;;;;;4993262;28;20271;-65
2022/01/02 07:09:07;;;;;;;4.90;3.20;;;6.50;99.90;;;;;;4993469;28;20682;-65
2022/01/02 07:11:32;;;;;;;3.50;3.00;;;6.70;99.90;;;;;;4993426;28;20187;-66
2022/01/02 07:13:58;;;;;;;4.50;4.10;;;6.80;99.90;;;;;;4993132;28;20182;-65
2022/01/02 07:16:23;;;;;;;5.53;5.03;;;6.90;99.90;;;;;;4993100;28;20638;-66
2022/01/02 07:18:49;;;;;;;4.97;4.37;;;6.90;99.90;;;;;;4993482;28;20707;-66
2022/01/02 07:21:17;;;;;;;4.03;3.70;;;7.00;99.90;;;;;;4993123;28;20211;-66
2022/01/02 07:23:43;;;;;;;4.10;3.70;;;7.00;99.90;;;;;;4993290;28;20179;-66
2022/01/02 07:26:09;;;;;;;4.53;4.13;;;7.20;99.90;;;;;;4993065;28;20514;-65
2022/01/02 07:28:34;;;;;;;3.27;2.97;;;7.20;99.90;;;;;;4993100;28;20222;-66
2022/01/02 07:31:00;;;;;;;4.23;3.67;;;7.30;99.90;;;;;;4992194;28;20653;-66
2022/01/02 07:33:26;;;;;;;3.33;2.77;;;7.30;99.90;;;;;;4993205;28;20175;-66
2022/01/02 07:35:51;;;;;;;4.50;3.23;;;7.40;99.90;;;;;;4992805;28;20407;-66
2022/01/02 07:38:17;;;;;;;3.63;2.90;;;7.40;99.90;;;;;;4992029;28;20797;-65
2022/01/02 07:40:42;;;;;;;3.53;3.23;;;7.50;99.90;;;;;;4992969;28;20274;-66
2022/01/02 07:43:08;;;;;;;3.40;2.40;;;7.50;99.90;;;;;;4992864;28;20257;-65
2022/01/02 07:45:33;;;;;;;3.93;3.40;;;7.60;99.90;;;;;;4992675;28;20183;-66
2022/01/02 07:47:59;;;;;;;5.30;3.50;;;7.60;99.90;;;;;;4992839;28;20179;-66
2022/01/02 07:50:25;;;;;;;3.70;3.10;;;7.50;99.90;;;;;;4992822;28;20197;-66
2022/01/02 07:52:52;;;;;;;3.73;2.80;;;7.40;99.90;;;;;;4992898;28;20178;-66
2022/01/02 07:55:18;;;;;;;2.90;2.70;;;7.40;99.90;;;;;;4992556;28;20651;-65
2022/01/02 07:57:44;;;;;;;3.90;3.37;;;7.40;99.90;;;;;;4992738;28;20466;-66
2022/01/02 08:00:10;;;;;;;2.53;2.33;;;7.50;99.90;;;;;;4992691;28;20963;-66
2022/01/02 08:02:36;;;;;;;3.00;2.80;;;7.70;99.90;;;;;;4992731;28;20664;-66
2022/01/02 08:05:01;;;;;;;2.87;2.63;;;7.80;99.90;;;;;;4992421;28;20510;-67
2022/01/02 08:07:27;;;;;;;6.50;3.20;;;7.90;99.90;;;;;;4992687;28;20178;-66
2022/01/02 08:09:52;;;;;;;3.63;3.13;;;8.10;99.90;;;;;;4992534;28;20232;-66
2022/01/02 08:12:18;;;;;;;4.30;2.77;;;8.20;99.90;;;;;;4992579;28;20183;-66
2022/01/02 08:14:43;;;;;;;3.10;2.50;;;8.30;99.90;;;;;;4992402;28;20171;-67
2022/01/02 08:17:09;;;;;;;3.07;2.73;;;8.40;99.90;;;;;;4992294;28;20176;-66
2022/01/02 08:19:35;;;;;;;3.80;3.43;;;8.60;99.90;;;;;;4992535;28;20179;-66
2022/01/02 08:22:00;;;;;;;4.90;4.37;;;8.80;99.90;;;;;;4992396;28;20627;-66
2022/01/02 08:24:26;;;;;;;4.90;4.40;;;9.00;99.90;;;;;;4992470;28;20187;-65
2022/01/02 08:26:52;;;;;;;6.50;5.83;;;9.30;99.90;;;;;;4992168;28;20179;-66
2022/01/02 08:29:18;;;;;;;4.73;4.13;;;9.50;99.90;;;;;;4992441;28;20253;-66
2022/01/02 08:31:43;;;;;;;3.17;2.97;;;10.20;99.90;;;;;;4992394;28;20438;-66
2022/01/02 08:34:09;;;;;;;6.00;4.03;;;11.00;99.90;;;;;;4992485;28;20442;-66
2022/01/02 08:36:34;;;;;;;3.80;3.43;;;11.30;99.90;;;;;;4992095;28;20168;-66
2022/01/02 08:39:00;;;;;;;2.87;2.63;;;11.50;99.90;;;;;;4992493;28;20167;-66
2022/01/02 08:41:25;;;;;;;3.97;3.57;;;11.60;99.90;;;;;;4992579;28;20675;-66
2022/01/02 08:43:51;;;;;;;3.97;2.90;;;11.40;99.90;;;;;;4996270;28;20650;-66
2022/01/02 08:46:16;;;;;;;3.97;3.50;;;11.30;99.90;;;;;;4995827;28;20179;-66
2022/01/02 08:48:42;;;;;;;3.43;2.77;;;11.10;99.90;;;;;;4996126;28;20199;-66
2022/01/02 08:51:10;;;;;;;3.10;2.90;;;11.20;99.90;;;;;;4996028;28;20206;-66
2022/01/02 08:53:37;;;;;;;3.80;3.50;;;11.70;99.90;;;;;;4996072;28;20176;-66
2022/01/02 08:56:03;;;;;;;3.97;3.57;;;12.10;99.90;;;;;;4995781;28;20494;-66
2022/01/02 08:58:29;;;;;;;3.70;3.40;;;12.10;99.90;;;;;;4996070;28;21015;-66
2022/01/02 09:00:57;;;;;;;3.80;3.40;;;12.10;99.90;;;;;;4995877;28;20806;-66
2022/01/02 09:03:23;;;;;;;4.07;3.53;;;12.20;99.90;;;;;;4995928;28;20172;-66
2022/01/02 09:05:48;;;;;;;3.50;3.10;;;12.30;99.90;;;;;;4995570;28;20517;-66
2022/01/02 09:08:14;;;;;;;3.50;3.20;;;12.50;99.90;;;;;;4995671;28;20910;-66
2022/01/02 09:10:40;;;;;;;3.43;3.13;;;12.80;99.90;;;;;;4995721;28;20193;-66
2022/01/02 09:13:07;;;;;;;3.10;2.90;;;13.70;99.90;;;;;;4995741;28;20179;-66
2022/01/02 09:15:33;;;;;;;4.67;3.10;;;14.90;99.90;;;;;;4995126;28;20160;-66
2022/01/02 09:17:59;;;;;;;3.90;3.60;;;16.00;99.90;;;;;;4995671;28;20468;-67
2022/01/02 09:20:25;;;;;;;7.30;3.47;;;17.50;99.90;;;;;;4995555;28;20853;-67
2022/01/02 09:22:51;;;;;;;3.10;2.90;;;19.10;98.70;;;;;;4995451;28;20180;-67
2022/01/02 09:25:17;;;;;;;2.83;2.53;;;20.90;92.60;;;;;;4995259;28;20168;-67
2022/01/02 09:27:44;;;;;;;3.50;3.30;;;21.50;86.10;;;;;;4995394;28;20411;-67
2022/01/02 09:30:11;;;;;;;2.90;2.70;;;20.70;84.70;;;;;;4995211;28;20462;-67
2022/01/02 09:32:36;;;;;;;2.90;2.70;;;19.90;84.50;;;;;;4995366;28;20422;-66
2022/01/02 09:35:08;;;;;;;3.57;3.27;;;18.80;87.00;;;;;;4995044;28;20415;-66
2022/01/02 09:37:34;;;;;;;3.67;3.37;;;17.80;90.00;;;;;;4995369;28;20426;-66
2022/01/02 09:40:04;;;;;;;3.30;3.10;;;16.30;93.00;;;;;;4993913;28;20462;-66
2022/01/02 09:42:30;;;;;;;4.07;3.53;;;15.30;95.40;;;;;;4995184;28;20184;-66
2022/01/02 09:44:55;;;;;;;3.60;3.30;;;14.50;97.90;;;;;;4995040;28;20427;-66
2022/01/02 09:47:22;;;;;;;4.10;3.80;;;14.30;99.30;;;;;;4994868;28;20168;-66
2022/01/02 09:49:48;;;;;;;3.90;3.60;;;14.00;99.90;;;;;;4994955;28;20686;-66
2022/01/02 09:52:14;;;;;;;4.60;4.07;;;13.80;99.90;;;;;;4995018;28;20418;-66
2022/01/02 09:54:40;;;;;;;4.23;3.83;;;13.70;99.90;;;;;;4993999;28;20963;-66
2022/01/02 09:57:06;;;;;;;5.07;4.57;;;13.60;99.90;;;;;;4994597;28;20509;-67
2022/01/02 09:59:31;;;;;;;5.03;4.27;;;13.30;99.90;;;;;;4994815;28;20230;-66
2022/01/02 10:01:59;;;;;;;5.00;4.17;;;13.30;99.90;;;;;;4994738;28;20191;-66
2022/01/02 10:04:38;;;;;;;4.20;3.80;;;13.10;99.90;;;;;;4994807;28;20171;-66
2022/01/02 10:07:29;;;;;;;3.93;3.50;;;12.90;99.90;;;;;;4994457;28;20422;-67
2022/01/02 10:09:55;;;;;;;3.73;3.43;;;12.60;99.90;;;;;;4994674;28;20545;-66
2022/01/02 10:12:29;;;;;;;3.90;3.60;;;12.60;99.90;;;;;;4994577;28;20474;-67
2022/01/02 10:15:06;;;;;;;3.63;3.33;;;12.80;99.90;;;;;;4994001;28;20415;-67
2022/01/02 10:18:00;;;;;;;3.27;3.00;;;12.90;99.90;;;;;;4994578;28;20422;-65
2022/01/02 10:20:34;;;;;;;11.93;6.80;;;12.80;99.90;;;;;;5007032;23;20431;-64
2022/01/02 10:23:16;;;;;;;4.47;3.47;;;12.90;99.90;;;;;;4974951;28;20415;-64
2022/01/02 10:25:58;;;;;;;3.50;3.20;;;12.80;99.90;;;;;;4974811;28;20412;-64
2022/01/02 10:28:26;;;;;;;6.30;5.40;;;12.60;99.90;;;;;;4974845;28;20455;-65
2022/01/02 10:30:54;;;;;;;4.80;3.93;;;12.30;99.90;;;;;;4974893;28;20451;-66
2022/01/02 10:33:19;;;;;;;5.37;4.30;;;12.00;99.90;;;;;;4974974;28;20455;-65
2022/01/02 10:35:45;;;;;;;4.90;4.30;;;11.90;99.90;;;;;;4974528;28;20875;-64
2022/01/02 10:38:16;;;;;;;6.37;5.00;;;11.80;99.90;;;;;;4974749;28;20661;-64
2022/01/02 10:40:42;;;;;;;10.17;9.17;;;11.80;99.90;;;;;;4973411;28;20231;-64
2022/01/02 10:43:33;;;;;;;4.13;3.80;;;11.80;99.90;;;;;;4974547;28;20430;-65
2022/01/02 10:46:03;;;;;;;5.83;4.03;;;11.70;99.90;;;;;;4974319;28;20504;-65
2022/01/02 10:48:32;;;;;;;8.10;3.83;;;11.70;99.90;;;;;;4974556;28;20491;-65
2022/01/02 10:50:59;;;;;;;4.63;4.17;;;11.80;99.90;;;;;;4974439;28;20428;-65
2022/01/02 10:53:25;;;;;;;5.13;4.43;;;11.90;99.90;;;;;;4974463;28;20557;-64
2022/01/02 10:55:50;;;;;;;5.63;4.40;;;11.80;99.90;;;;;;4974180;28;20508;-64
2022/01/02 10:58:16;;;;;;;4.87;3.50;;;11.90;99.90;;;;;;4974333;28;20662;-64
2022/01/02 11:00:42;;;;;;;5.13;4.60;;;12.00;99.90;;;;;;4974226;28;20739;-64
2022/01/02 11:03:08;;;;;;;5.90;5.33;;;12.00;99.90;;;;;;4974295;28;20602;-65
2022/01/02 11:05:36;;;;;;;4.60;4.20;;;11.90;99.90;;;;;;4973787;28;20426;-63
2022/01/02 11:08:03;;;;;;;5.77;5.27;;;11.70;99.90;;;;;;4974143;28;20441;-64
2022/01/02 11:10:31;;;;;;;5.80;5.27;;;11.50;99.90;;;;;;4974003;28;20527;-65
2022/01/02 11:12:57;;;;;;;6.60;5.93;;;11.40;99.90;;;;;;4974041;28;20447;-64
2022/01/02 11:15:25;;;;;;;7.83;5.60;;;11.40;99.90;;;;;;4973833;28;20423;-64
2022/01/02 11:17:52;;;;;;;5.70;5.10;;;11.50;99.90;;;;;;4974085;28;20423;-64
2022/01/02 11:20:20;;;;;;;3.70;3.40;;;11.70;99.90;;;;;;4973786;28;20426;-64
2022/01/02 11:23:12;;;;;;;5.00;3.47;;;11.80;99.90;;;;;;4973969;28;20833;-65
2022/01/02 11:25:50;;;;;;;4.10;3.40;;;12.00;99.90;;;;;;4973670;28;20434;-64
2022/01/02 11:28:19;;;;;;;2.40;2.10;;;12.10;99.90;;;;;;4973857;28;20501;-65
2022/01/02 11:30:49;;;;;;;2.77;2.47;;;12.30;99.90;;;;;;4973706;28;20471;-64
2022/01/02 11:33:19;;;;;;;2.00;1.60;;;12.50;99.90;;;;;;4973789;28;20786;-65
2022/01/02 11:35:48;;;;;;;1.70;1.60;;;12.60;99.90;;;;;;4973477;28;20502;-65
2022/01/02 11:38:16;;;;;;;2.20;2.10;;;12.70;99.90;;;;;;4973677;28;20424;-64
2022/01/02 11:40:43;;;;;;;2.37;1.57;;;12.70;99.90;;;;;;4973626;28;20436;-64
2022/01/02 11:43:08;;;;;;;1.73;1.63;;;12.80;99.90;;;;;;4973610;28;20420;-63
2022/01/02 11:45:42;;;;;;;1.67;1.50;;;12.80;99.90;;;;;;4973276;28;20424;-64
2022/01/02 11:48:28;;;;;;;2.03;1.70;;;12.70;99.90;;;;;;4973522;28;20211;-64
2022/01/02 11:50:54;;;;;;;2.03;1.90;;;12.80;99.90;;;;;;4973502;28;20435;-64
2022/01/02 11:53:27;;;;;;;2.80;1.80;;;12.70;99.90;;;;;;4973507;28;20424;-64
2022/01/02 11:55:54;;;;;;;2.10;1.70;;;12.70;99.90;;;;;;4973207;28;20535;-64
2022/01/02 11:58:38;;;;;;;3.20;1.83;;;12.70;99.90;;;;;;4973320;28;20427;-64
2022/01/02 12:01:04;;;;;;;1.90;1.80;;;12.70;99.90;;;;;;4973326;28;20438;-63
2022/01/02 12:03:41;;;;;;;2.10;1.90;;;12.70;99.90;;;;;;4973421;28;20511;-64
2022/01/02 12:06:17;;;;;;;2.37;1.80;;;12.70;99.90;;;;;;4973035;28;20419;-64
2022/01/02 12:08:43;;;;;;;2.97;2.57;;;12.80;99.90;;;;;;4973198;28;20459;-64
2022/01/02 12:11:30;;;;;;;2.50;2.10;;;12.80;99.90;;;;;;4973223;28;20840;-64
2022/01/02 12:14:07;;;;;;;2.37;2.17;;;12.90;99.90;;;;;;4973217;28;20168;-64
2022/01/02 12:16:40;;;;;;;2.60;2.40;;;13.10;99.90;;;;;;4974773;28;20937;-65
2022/01/02 12:19:08;;;;;;;1.70;1.60;;;13.90;99.90;;;;;;4979953;28;20925;-64
2022/01/02 12:21:34;;;;;;;2.27;2.07;;;14.30;99.90;;;;;;4979441;28;20459;-64
2022/01/02 12:24:04;;;;;;;2.33;2.13;;;14.40;99.90;;;;;;4979635;28;20423;-64
2022/01/02 12:26:31;;;;;;;1.90;1.80;;;14.30;99.90;;;;;;4979308;28;20419;-64
2022/01/02 12:29:01;;;;;;;1.53;1.43;;;14.30;99.90;;;;;;4979566;28;20482;-63
2022/01/02 12:31:36;;;;;;;2.63;2.47;;;14.40;99.90;;;;;;4979468;28;20570;-65
2022/01/02 12:34:25;;;;;;;2.10;1.90;;;14.50;99.60;;;;;;4979601;28;20413;-66
2022/01/02 12:36:52;;;;;;;1.53;1.43;;;14.70;99.00;;;;;;4979270;28;20423;-65
2022/01/02 12:39:32;;;;;;;2.07;1.97;;;15.30;98.10;;;;;;4979462;28;20592;-64
2022/01/02 12:42:15;;;;;;;2.33;2.13;;;16.60;96.30;;;;;;4979474;28;21028;-67
2022/01/02 12:44:42;;;;;;;2.20;1.60;;;17.50;93.50;;;;;;4979405;28;20470;-65
2022/01/02 12:47:10;;;;;;;1.93;1.73;;;17.90;92.10;;;;;;4979180;28;20419;-65
2022/01/02 12:49:41;;;;;;;1.90;1.80;;;18.50;90.40;;;;;;4979347;28;20836;-64
2022/01/02 12:52:13;;;;;;;4.60;1.80;;;18.90;87.90;;;;;;4979242;28;20817;-64
2022/01/02 12:54:49;;;;;;;1.70;1.60;;;18.40;87.80;;;;;;4978025;28;20478;-64
2022/01/02 12:57:16;;;;;;;2.37;1.90;;;18.50;87.50;;;;;;4979036;28;20431;-65
2022/01/02 12:59:49;;;;;;;3.53;2.20;;;18.70;86.90;;;;;;4979322;28;20427;-64
2022/01/02 13:02:17;;;;;;;3.10;2.30;;;18.50;87.30;;;;;;4979277;28;20435;-65